Friesland, Wisconsin
Current Conditions -  °F | °C
As of 4:35 PM on Monday 24 Nov 2014 (Local Time) from KUNU Reporting Station
Moderate Snow Moderate Snow  
Wind Chill: 17°   Ceiling: 600
Heat Index: 28°   Visibility: 0.5mi
Dew Point: 27°   Wind: 16mph
Humidity: 95%   Direction: 240°WSW
Pressure: 29.43"   Gusts: NA
Location:  43.59°N, 89.07°W
Report Text: KUNU 242235Z AUTO 24014KT 1/2SM SN OVC006 M02/M03 A2943 RMK AO2 T10201027
Loading
Personal Weather Stations






























Interactive Weather Map New forecast layout! Learn more

10-Day Weather Forecast

Advertisements
Track Severe Weather on mobile